Time;durP1;ratioP1;P1;durP2;ratioP2;P2;SDS_P1;SDS_P2;PMS_P1;PMS_P2;Temp;Humidity;BMP_temperature;BMP_pressure;BME280_temperature;BME280_humidity;BME280_pressure;Samples;Min_cycle;Max_cycle;Signal;HPM_P1;HPM_P2
2022/04/16 00:01:53;;;;;;;6.03;2.65;;;;;;;10.45;65.61;103189.41;4997258;28;96656;-34
2022/04/16 00:04:19;;;;;;;3.85;2.30;;;;;;;10.40;65.71;103187.69;4996595;28;96839;-34
2022/04/16 00:06:44;;;;;;;4.80;2.65;;;;;;;10.44;65.90;103202.06;4997420;28;97965;-34
2022/04/16 00:09:10;;;;;;;5.88;3.03;;;;;;;10.39;65.72;103187.72;4996972;28;97840;-34
2022/04/16 00:11:37;;;;;;;4.50;2.95;;;;;;;10.32;65.99;103181.56;4997881;28;96568;-34
2022/04/16 00:14:03;;;;;;;9.50;3.45;;;;;;;10.41;64.86;103197.59;4997994;28;96757;-34
2022/04/16 00:16:29;;;;;;;6.13;3.38;;;;;;;10.39;65.28;103196.75;4996016;28;100885;-34
2022/04/16 00:18:56;;;;;;;4.28;2.55;;;;;;;10.35;65.11;103186.91;4997951;28;98082;-34
2022/04/16 00:21:22;;;;;;;6.90;3.13;;;;;;;10.37;65.16;103192.31;4997481;28;96566;-34
2022/04/16 00:23:48;;;;;;;5.63;2.95;;;;;;;10.33;65.41;103188.75;4997512;28;96948;-34
2022/04/16 00:26:14;;;;;;;5.93;3.08;;;;;;;10.34;65.05;103192.34;4995420;28;100917;-34
2022/04/16 00:28:39;;;;;;;6.28;2.38;;;;;;;10.31;65.53;103200.56;4996348;28;126327;-34
2022/04/16 00:31:05;;;;;;;5.25;3.38;;;;;;;10.28;65.19;103187.06;4997363;28;96625;-34
2022/04/16 00:33:55;;;;;;;7.18;3.78;;;;;;;10.41;64.56;103192.16;4997524;28;96747;-34
2022/04/16 00:36:20;;;;;;;5.05;3.30;;;;;;;10.37;65.16;103189.59;4997221;28;98078;-34
2022/04/16 00:38:45;;;;;;;4.75;2.92;;;;;;;10.24;65.44;103172.69;4996939;28;99107;-34
2022/04/16 00:41:12;;;;;;;6.05;3.55;;;;;;;10.26;65.94;103184.38;4996737;28;109793;-34
2022/04/16 00:43:37;;;;;;;4.80;3.05;;;;;;;10.23;65.62;103183.56;4997708;28;96825;-34
2022/04/16 00:46:03;;;;;;;4.82;2.83;;;;;;;10.24;65.82;103191.63;4996797;28;99586;-34
2022/04/16 00:48:28;;;;;;;6.82;3.47;;;;;;;10.27;65.92;103196.97;4997290;28;97102;-34
2022/04/16 00:50:54;;;;;;;7.13;3.20;;;;;;;10.30;65.37;103204.19;4995786;28;117758;-34
2022/04/16 00:53:21;;;;;;;5.55;3.47;;;;;;;10.19;66.15;103186.31;4995773;28;97007;-34
2022/04/16 00:55:46;;;;;;;6.00;3.30;;;;;;;10.20;66.11;103192.63;4994387;28;100994;-34
2022/04/16 00:58:12;;;;;;;6.65;3.78;;;;;;;10.16;66.66;103186.41;4996540;28;97824;-34
2022/04/16 01:00:37;;;;;;;5.45;3.33;;;;;;;10.19;66.37;103183.59;4996973;28;96999;-34
2022/04/16 01:03:03;;;;;;;7.32;2.80;;;;;;;10.19;66.26;103191.72;4996978;28;96783;-34
2022/04/16 01:05:29;;;;;;;5.22;3.00;;;;;;;10.19;66.47;103197.16;4996092;28;117139;-34
2022/04/16 01:07:59;;;;;;;5.72;3.15;;;;;;;10.21;66.10;103192.59;4995208;28;103180;-34
2022/04/16 01:10:33;;;;;;;7.25;3.45;;;;;;;10.25;66.75;103206.97;4995208;28;97183;-34
2022/04/16 01:13:04;;;;;;;6.05;3.47;;;;;;;10.25;66.12;103200.66;4995424;28;96851;-34
2022/04/16 01:15:30;;;;;;;5.03;3.33;;;;;;;10.25;66.03;103206.06;4994757;28;100921;-34
2022/04/16 01:17:57;;;;;;;5.30;3.47;;;;;;;10.18;66.71;103200.78;4995130;28;100907;-34
2022/04/16 01:20:23;;;;;;;6.80;3.55;;;;;;;10.18;66.25;103200.78;4996830;28;96684;-34
2022/04/16 01:22:50;;;;;;;6.15;3.33;;;;;;;10.13;66.36;103186.47;4995383;28;96909;-34
2022/04/16 01:25:16;;;;;;;5.97;3.70;;;;;;;10.16;66.31;103196.34;4996457;28;98133;-34
2022/04/16 01:27:45;;;;;;;10.75;3.55;;;;;;;10.08;66.29;103176.66;4995046;28;101004;-34
2022/04/16 01:30:11;;;;;;;5.57;3.30;;;;;;;10.09;65.86;103195.59;4996367;28;96507;-35
2022/04/16 01:32:37;;;;;;;5.60;3.45;;;;;;;10.08;66.33;103199.22;4995688;28;96783;-34
2022/04/16 01:35:05;;;;;;;6.35;3.17;;;;;;;10.05;66.93;103192.97;4994832;28;101183;-34
2022/04/16 01:37:34;;;;;;;8.70;3.47;;;;;;;10.04;66.86;103202.03;4994785;28;101056;-34
2022/04/16 01:40:00;;;;;;;8.25;3.78;;;;;;;9.98;67.16;103198.50;4994591;28;96575;-34
2022/04/16 01:42:26;;;;;;;5.80;3.67;;;;;;;10.00;67.17;103202.06;4994997;28;96848;-34
2022/04/16 01:44:52;;;;;;;4.72;2.85;;;;;;;9.96;66.66;103191.34;4996028;28;97895;-35
2022/04/16 01:47:18;;;;;;;6.50;3.40;;;;;;;9.95;67.42;103187.75;4996072;28;97946;-35
2022/04/16 01:49:43;;;;;;;8.23;3.53;;;;;;;9.90;67.42;103191.50;4996590;28;97058;-34
2022/04/16 01:52:09;;;;;;;5.97;3.67;;;;;;;9.83;67.55;103189.84;4996349;28;96691;-35
2022/04/16 01:54:35;;;;;;;6.18;3.75;;;;;;;9.78;67.51;103185.41;4994506;28;101246;-35
2022/04/16 01:57:01;;;;;;;4.68;2.47;;;;;;;9.76;67.28;103187.25;4994939;28;100996;-35
2022/04/16 01:59:27;;;;;;;4.90;2.88;;;;;;;9.69;67.93;103191.00;4996141;28;96562;-35
2022/04/16 02:01:52;;;;;;;4.65;2.30;;;;;;;9.63;68.32;103195.63;4996207;28;96694;-35
2022/04/16 02:04:17;;;;;;;5.30;2.70;;;;;;;9.57;68.12;103204.78;4994464;28;126354;-34
2022/04/16 02:06:43;;;;;;;6.07;3.55;;;;;;;9.50;68.11;103204.00;4994323;28;128468;-35
2022/04/16 02:09:08;;;;;;;6.13;2.60;;;;;;;9.54;67.75;103213.84;4994494;28;116652;-34
2022/04/16 02:11:33;;;;;;;5.38;3.17;;;;;;;9.49;68.10;103207.63;4995697;28;98277;-34
2022/04/16 02:14:16;;;;;;;5.03;3.13;;;;;;;9.43;67.99;103198.72;4994311;28;128570;-35
2022/04/16 02:16:42;;;;;;;6.15;3.42;;;;;;;9.38;67.49;103206.94;4994887;28;126678;-34
2022/04/16 02:19:09;;;;;;;5.25;3.20;;;;;;;9.29;68.04;103193.56;4995857;28;96574;-34
2022/04/16 02:21:35;;;;;;;9.15;3.17;;;;;;;9.34;68.60;103207.91;4996059;28;96947;-34
2022/04/16 02:24:00;;;;;;;5.60;2.90;;;;;;;9.29;68.37;103205.28;4995557;28;98125;-34
2022/04/16 02:26:26;;;;;;;4.60;2.28;;;;;;;9.21;67.84;103201.84;4995237;28;98809;-35
2022/04/16 02:28:51;;;;;;;8.10;3.42;;;;;;;9.24;67.87;103204.47;4995156;28;96701;-34
2022/04/16 02:31:16;;;;;;;6.22;3.10;;;;;;;9.17;68.47;103191.97;4995790;28;96776;-34
2022/04/16 02:33:42;;;;;;;5.50;3.00;;;;;;;9.19;68.51;103200.06;4994350;28;126928;-34
2022/04/16 02:36:08;;;;;;;6.32;3.78;;;;;;;9.19;67.96;103216.31;4995033;28;99298;-34
2022/04/16 02:38:34;;;;;;;5.60;3.53;;;;;;;9.10;68.40;103201.13;4994167;28;96568;-34
2022/04/16 02:40:59;;;;;;;4.57;2.95;;;;;;;9.10;68.28;103218.22;4994132;28;96698;-34
2022/04/16 02:43:25;;;;;;;4.38;2.22;;;;;;;9.00;68.85;103194.09;4994608;28;120295;-34
2022/04/16 02:48:33;;;;;;;4.50;2.60;;;;;;;9.03;69.04;103216.56;4994548;28;96613;-34
2022/04/16 02:50:59;;;;;;;5.60;3.13;;;;;;;8.98;69.26;103204.94;4994484;28;116551;-34
2022/04/16 02:53:26;;;;;;;6.95;3.17;;;;;;;9.05;69.08;103219.25;4994529;28;99246;-34
2022/04/16 02:55:55;;;;;;;4.90;3.13;;;;;;;9.01;68.51;103212.09;4993205;28;100924;-34
2022/04/16 02:58:20;;;;;;;4.88;3.03;;;;;;;8.99;68.43;103213.94;4993890;28;96611;-34
2022/04/16 03:00:46;;;;;;;6.80;3.75;;;;;;;9.02;68.91;103224.69;4993802;28;96993;-34
2022/04/16 03:03:11;;;;;;;6.20;2.80;;;;;;;8.96;68.77;103213.97;4993536;28;100692;-34
2022/04/16 03:05:37;;;;;;;6.93;3.40;;;;;;;8.88;68.19;103212.28;4994856;28;97778;-34
2022/04/16 03:08:05;;;;;;;5.72;3.35;;;;;;;8.90;69.31;103220.41;4994935;28;96692;-34
2022/04/16 03:10:31;;;;;;;6.25;3.47;;;;;;;8.90;68.76;103226.69;4977811;28;96688;-34
2022/04/16 03:12:56;;;;;;;6.13;3.30;;;;;;;8.89;68.61;103222.22;4994747;28;99186;-34
2022/04/16 03:18:07;;;;;;;6.68;3.03;;;;;;;8.88;68.68;103227.63;4994723;28;96702;-34
2022/04/16 03:20:33;;;;;;;5.68;3.00;;;;;;;8.87;69.53;103221.34;4976264;28;96797;-34
2022/04/16 03:22:59;;;;;;;5.00;3.05;;;;;;;8.91;68.90;103228.50;4993286;28;101228;-34
2022/04/16 03:25:27;;;;;;;5.50;3.00;;;;;;;8.82;69.08;103217.81;4992988;28;100725;-34
2022/04/16 03:27:52;;;;;;;3.72;2.67;;;;;;;8.87;68.97;103224.03;4993428;28;96689;-34
2022/04/16 03:30:17;;;;;;;10.68;3.35;;;;;;;8.87;69.04;103223.16;4994664;28;96882;-34
2022/04/16 03:32:47;;;;;;;5.00;3.42;;;;;;;8.89;68.86;103235.72;4994645;28;97886;-34
2022/04/16 03:35:12;;;;;;;8.00;3.70;;;;;;;8.80;69.41;103218.75;4993154;28;100686;-34
2022/04/16 03:37:38;;;;;;;5.82;2.83;;;;;;;8.83;68.96;103229.53;4994983;28;96565;-34
2022/04/16 03:40:04;;;;;;;5.68;3.15;;;;;;;8.80;68.99;103237.69;4993794;28;113121;-34
2022/04/16 03:42:31;;;;;;;7.82;3.50;;;;;;;8.72;69.03;103224.25;4992381;28;102509;-34
2022/04/16 03:44:57;;;;;;;5.78;3.50;;;;;;;8.73;69.24;103223.38;4994180;28;98660;-34
2022/04/16 03:47:23;;;;;;;4.22;2.58;;;;;;;8.72;69.77;103232.38;4993318;28;96600;-34
2022/04/16 03:49:48;;;;;;;5.22;3.42;;;;;;;8.72;69.38;103235.06;4994843;28;96873;-34
2022/04/16 03:52:13;;;;;;;6.70;3.25;;;;;;;8.69;69.11;103237.84;4993389;28;126709;-34
2022/04/16 04:00:09;;;;;;;7.78;3.38;;;;;;;8.59;68.98;103236.19;4994940;28;96724;-34
2022/04/16 04:02:36;;;;;;;8.48;3.78;;;;;;;8.65;69.31;103255.00;4992573;28;101156;-34
2022/04/16 04:05:02;;;;;;;6.80;3.90;;;;;;;8.58;69.22;103243.41;4992794;28;100839;-34
2022/04/16 04:07:28;;;;;;;7.63;3.80;;;;;;;8.59;69.99;103256.00;4993572;28;96568;-34
2022/04/16 04:09:53;;;;;;;8.13;3.97;;;;;;;8.55;69.72;103254.25;4994013;28;96755;-34
2022/04/16 04:12:19;;;;;;;6.65;3.08;;;;;;;8.53;70.14;103249.78;4993942;28;99302;-34
2022/04/16 04:14:45;;;;;;;4.97;2.85;;;;;;;8.54;69.75;103249.75;4994124;28;97757;-35
2022/04/16 04:17:11;;;;;;;6.05;3.25;;;;;;;8.50;69.67;103245.31;4993033;28;96566;-34
2022/04/16 04:19:39;;;;;;;6.22;3.35;;;;;;;8.47;69.85;103243.56;4992848;28;96633;-34
2022/04/16 04:22:05;;;;;;;6.82;4.10;;;;;;;8.50;69.79;103254.31;4992616;28;100989;-34
2022/04/16 04:24:31;;;;;;;7.43;3.25;;;;;;;8.48;70.52;103264.22;4992819;28;100828;-34
2022/04/16 04:26:59;;;;;;;6.28;3.25;;;;;;;8.51;69.89;103268.72;4992690;28;96623;-34
2022/04/16 04:29:24;;;;;;;5.93;3.10;;;;;;;8.41;70.40;103259.81;4993772;28;96622;-34
2022/04/16 04:31:59;;;;;;;5.93;3.53;;;;;;;8.41;70.04;103265.22;4996068;28;97913;-34
2022/04/16 04:34:25;;;;;;;7.40;3.70;;;;;;;8.38;70.28;103267.06;4997141;28;99124;-34
2022/04/16 04:36:56;;;;;;;4.35;2.90;;;;;;;8.32;70.74;103259.03;4997314;28;97170;-34
2022/04/16 04:39:21;;;;;;;6.07;3.83;;;;;;;8.26;70.49;103263.59;4997701;28;96875;-34
2022/04/16 04:41:46;;;;;;;6.32;3.40;;;;;;;8.19;70.53;103259.19;4996381;28;119920;-34
2022/04/16 04:44:13;;;;;;;5.05;3.47;;;;;;;8.21;70.00;103259.19;4996915;28;97810;-34
2022/04/16 04:46:38;;;;;;;12.95;3.28;;;;;;;8.34;70.40;103276.09;4996011;28;96621;-34
2022/04/16 04:49:07;;;;;;;6.35;3.70;;;;;;;8.25;70.85;103285.25;4996374;28;96842;-34
2022/04/16 04:51:34;;;;;;;6.45;3.40;;;;;;;8.18;70.66;103268.22;4995508;28;100878;-34
2022/04/16 04:53:59;;;;;;;6.68;3.67;;;;;;;8.26;70.91;103287.00;4996804;28;99629;-34
2022/04/16 04:56:24;;;;;;;8.07;4.05;;;;;;;8.20;69.77;103281.66;4996051;28;118083;-35
2022/04/16 04:58:49;;;;;;;9.63;3.67;;;;;;;8.16;70.74;103275.44;4996870;28;96810;-34
2022/04/16 05:01:15;;;;;;;4.93;3.17;;;;;;;8.20;70.36;103289.78;4995941;28;125932;-34
2022/04/16 05:03:40;;;;;;;7.85;3.67;;;;;;;8.17;71.50;103282.59;4995960;28;126611;-34
2022/04/16 05:06:05;;;;;;;10.13;3.90;;;;;;;8.23;70.81;103287.94;4995713;28;117271;-34
2022/04/16 05:08:30;;;;;;;10.07;3.92;;;;;;;8.19;70.90;103280.78;4996267;28;96790;-34
2022/04/16 05:10:56;;;;;;;5.57;3.50;;;;;;;8.23;69.98;103290.66;4995386;28;100825;-34
2022/04/16 05:13:21;;;;;;;4.25;2.92;;;;;;;8.11;70.79;103287.22;4995716;28;126329;-34
2022/04/16 05:15:46;;;;;;;4.22;2.95;;;;;;;8.05;70.91;103289.03;4996707;28;96527;-34
2022/04/16 05:18:11;;;;;;;7.97;4.28;;;;;;;8.04;70.76;103278.28;4996012;28;116665;-34
2022/04/16 05:20:37;;;;;;;7.28;3.75;;;;;;;8.06;70.97;103288.16;4995528;28;119839;-34
2022/04/16 05:23:02;;;;;;;7.03;3.85;;;;;;;8.04;71.17;103289.09;4996053;28;118184;-34
2022/04/16 05:25:27;;;;;;;5.25;3.33;;;;;;;8.19;70.78;103309.59;4995525;28;117590;-34
2022/04/16 05:27:52;;;;;;;6.45;3.58;;;;;;;8.12;71.26;103300.66;4995792;28;113732;-34
2022/04/16 05:30:31;;;;;;;6.15;3.30;;;;;;;8.13;70.48;103304.25;4995577;28;126627;-34
2022/04/16 05:33:02;;;;;;;7.53;4.50;;;;;;;8.08;70.88;103301.66;4994935;28;101055;-34
2022/04/16 05:35:27;;;;;;;7.40;2.90;;;;;;;8.14;70.93;103314.16;4995419;28;96850;-34
2022/04/16 05:37:53;;;;;;;7.75;3.97;;;;;;;8.09;71.30;103315.09;4996697;28;96757;-34
2022/04/16 05:40:19;;;;;;;4.93;3.03;;;;;;;8.15;71.08;103318.63;4996279;28;104281;-34
2022/04/16 05:42:44;;;;;;;5.38;3.25;;;;;;;8.12;71.30;103321.38;4995285;28;99170;-34
2022/04/16 05:45:14;;;;;;;6.32;3.50;;;;;;;8.02;71.25;103310.69;4995770;28;96462;-34
2022/04/16 05:47:41;;;;;;;9.23;4.90;;;;;;;8.17;71.72;103327.63;4996177;28;96823;-34
2022/04/16 05:50:07;;;;;;;7.25;4.13;;;;;;;8.21;71.45;103329.38;4996053;28;97871;-34
2022/04/16 05:52:33;;;;;;;6.90;3.47;;;;;;;8.16;71.60;103324.03;4994546;28;101575;-34
2022/04/16 05:54:59;;;;;;;5.03;3.00;;;;;;;8.25;71.00;103333.84;4995889;28;96785;-34
2022/04/16 05:57:26;;;;;;;6.03;3.40;;;;;;;8.29;70.08;103338.25;4996328;28;96538;-34
2022/04/16 05:59:51;;;;;;;6.80;3.80;;;;;;;8.22;71.29;103340.16;4994281;28;100407;-34
2022/04/16 06:02:17;;;;;;;7.05;3.78;;;;;;;8.21;71.72;103326.69;4996429;28;97325;-34
2022/04/16 06:04:43;;;;;;;11.32;4.35;;;;;;;8.29;70.91;103341.88;4996204;28;96615;-34
2022/04/16 06:07:08;;;;;;;7.30;3.67;;;;;;;8.30;70.61;103338.25;4994958;28;116706;-34
2022/04/16 06:09:33;;;;;;;9.13;3.78;;;;;;;8.28;71.15;103333.78;4994602;28;97911;-34
2022/04/16 06:12:03;;;;;;;10.18;4.55;;;;;;;8.34;71.05;103339.09;4994751;28;126392;-34
2022/04/16 06:14:30;;;;;;;8.23;3.50;;;;;;;8.46;70.91;103349.81;4994695;28;96562;-34
2022/04/16 06:16:55;;;;;;;7.75;4.97;;;;;;;8.53;70.23;103342.50;4994636;28;96798;-34
2022/04/16 06:19:20;;;;;;;7.18;3.95;;;;;;;8.60;70.96;103348.72;4995433;28;104055;-34
2022/04/16 06:21:46;;;;;;;7.15;3.88;;;;;;;8.64;70.38;103345.97;4995539;28;99055;-34
2022/04/16 06:24:11;;;;;;;5.28;3.33;;;;;;;8.75;70.45;103350.31;4994694;28;116896;-34
2022/04/16 06:26:36;;;;;;;5.53;3.78;;;;;;;8.83;70.32;103343.91;4995087;28;116231;-35
2022/04/16 06:29:01;;;;;;;6.95;4.10;;;;;;;8.99;69.65;103354.53;4995633;28;96985;-34
2022/04/16 06:31:27;;;;;;;7.85;4.10;;;;;;;9.11;70.97;103367.84;4995358;28;99270;-34
2022/04/16 06:33:52;;;;;;;8.18;4.55;;;;;;;9.16;69.89;103357.84;4994402;28;117497;-34
2022/04/16 06:36:17;;;;;;;10.65;4.32;;;;;;;9.20;70.22;103358.69;4995736;28;96933;-34
2022/04/16 06:38:43;;;;;;;10.52;5.10;;;;;;;9.30;69.62;103353.13;4995309;28;97888;-34
2022/04/16 06:41:08;;;;;;;7.00;4.22;;;;;;;9.36;69.78;103361.13;4994298;28;126743;-34
2022/04/16 06:43:33;;;;;;;7.72;4.13;;;;;;;9.52;69.32;103352.78;4995361;28;96808;-34
2022/04/16 06:45:58;;;;;;;11.85;5.45;;;;;;;9.71;68.96;103365.06;4994199;28;118323;-34
2022/04/16 06:48:24;;;;;;;8.18;4.43;;;;;;;9.85;68.52;103361.25;4995231;28;99975;-34
2022/04/16 06:50:49;;;;;;;10.85;5.55;;;;;;;9.92;68.77;103360.22;4993737;28;106616;-34
2022/04/16 06:53:15;;;;;;;8.15;4.03;;;;;;;10.08;69.29;103371.63;4995022;28;96576;-34
2022/04/16 06:55:41;;;;;;;7.88;3.95;;;;;;;10.11;69.58;103375.19;4995362;28;96807;-34
2022/04/16 06:58:06;;;;;;;7.15;3.80;;;;;;;10.29;69.37;103371.25;4994695;28;105345;-34
2022/04/16 07:00:31;;;;;;;8.98;4.85;;;;;;;10.46;67.92;103359.19;4994470;28;106242;-34
2022/04/16 07:02:57;;;;;;;8.38;3.92;;;;;;;10.56;68.08;103375.22;4995187;28;96620;-34
2022/04/16 07:05:22;;;;;;;9.18;4.53;;;;;;;10.68;67.81;103363.25;4995309;28;96849;-34
2022/04/16 07:07:47;;;;;;;8.05;4.57;;;;;;;10.75;67.84;103375.72;4994167;28;99615;-35
2022/04/16 07:10:12;;;;;;;7.07;4.10;;;;;;;10.84;67.54;103369.19;4994001;28;107220;-34
2022/04/16 07:12:38;;;;;;;7.78;3.83;;;;;;;11.00;67.30;103358.91;4994169;28;116756;-34
2022/04/16 07:15:05;;;;;;;9.88;5.80;;;;;;;11.11;67.03;103358.63;4993979;28;96865;-34
2022/04/16 07:17:30;;;;;;;10.88;5.57;;;;;;;11.35;66.35;103363.50;4993304;28;100560;-34
2022/04/16 07:19:55;;;;;;;12.48;5.45;;;;;;;11.58;65.86;103375.59;4994533;28;99375;-34
2022/04/16 07:22:27;;;;;;;9.38;4.88;;;;;;;11.60;65.82;103371.03;4994287;28;96607;-34
2022/04/16 07:24:52;;;;;;;9.68;4.40;;;;;;;11.63;65.89;103366.44;4994791;28;96906;-34
2022/04/16 07:27:31;;;;;;;11.25;5.00;;;;;;;11.62;65.79;103374.59;4993602;28;127074;-34
2022/04/16 07:29:58;;;;;;;12.50;4.93;;;;;;;11.64;65.85;103368.19;4993027;28;101152;-34
2022/04/16 07:32:25;;;;;;;8.30;4.45;;;;;;;11.77;65.88;103374.19;4993361;28;96563;-34
2022/04/16 07:34:50;;;;;;;9.15;4.55;;;;;;;11.90;65.61;103377.53;4994781;28;96752;-34
2022/04/16 07:37:17;;;;;;;9.45;4.32;;;;;;;11.89;65.54;103370.28;4993703;28;123605;-34
2022/04/16 07:39:42;;;;;;;10.05;4.15;;;;;;;11.91;65.68;103368.44;4993464;28;100832;-34
2022/04/16 07:42:07;;;;;;;9.68;4.32;;;;;;;12.10;65.38;103360.69;4994714;28;96500;-34
2022/04/16 07:44:32;;;;;;;10.88;5.15;;;;;;;12.27;64.93;103377.41;4993629;28;118660;-34
2022/04/16 07:46:58;;;;;;;10.45;5.72;;;;;;;12.41;64.45;103365.25;4993771;28;103116;-34
2022/04/16 07:49:23;;;;;;;11.38;5.90;;;;;;;12.52;64.35;103377.59;4993716;28;127127;-34
2022/04/16 07:51:48;;;;;;;8.68;4.50;;;;;;;12.65;64.15;103380.84;4994648;28;96650;-34
2022/04/16 07:54:14;;;;;;;7.68;4.53;;;;;;;12.85;63.82;103369.38;4994707;28;96828;-34
2022/04/16 07:56:39;;;;;;;10.68;4.93;;;;;;;13.10;63.49;103377.66;4993043;28;99182;-34
2022/04/16 07:59:04;;;;;;;11.70;5.07;;;;;;;13.24;63.13;103366.34;4993965;28;105583;-34
2022/04/16 08:01:30;;;;;;;11.55;4.78;;;;;;;13.22;63.09;103372.78;4993589;28;116709;-34
2022/04/16 08:03:55;;;;;;;8.52;3.90;;;;;;;13.13;63.26;103369.41;4994588;28;96836;-35
2022/04/16 08:06:21;;;;;;;7.70;4.70;;;;;;;13.34;62.96;103373.28;4995618;28;98993;-34
2022/04/16 08:08:46;;;;;;;11.55;5.05;;;;;;;13.48;62.47;103361.06;4996114;28;126144;-34
2022/04/16 08:11:11;;;;;;;11.90;5.70;;;;;;;13.70;62.04;103359.38;4996534;28;117939;-35
2022/04/16 08:13:37;;;;;;;11.50;5.30;;;;;;;13.80;62.00;103365.44;4997841;28;96817;-34
2022/04/16 08:16:02;;;;;;;12.15;5.40;;;;;;;13.90;61.87;103374.16;4996135;28;108200;-34
2022/04/16 08:18:28;;;;;;;9.65;4.70;;;;;;;13.99;61.38;103361.09;4997212;28;98676;-34
2022/04/16 08:20:53;;;;;;;12.23;6.20;;;;;;;14.09;61.79;103369.84;4997776;28;96774;-35
2022/04/16 08:23:19;;;;;;;8.73;4.85;;;;;;;14.28;61.30;103375.50;4997860;28;96737;-34
2022/04/16 08:25:44;;;;;;;11.73;5.80;;;;;;;14.03;61.31;103370.94;4997264;28;99255;-34
2022/04/16 08:28:10;;;;;;;12.20;5.88;;;;;;;14.18;61.51;103377.69;4996796;28;126728;-34
2022/04/16 08:30:36;;;;;;;11.98;5.55;;;;;;;14.09;61.63;103372.56;4996334;28;96693;-34
2022/04/16 08:33:05;;;;;;;9.75;5.13;;;;;;;14.10;61.41;103379.78;4997426;28;96803;-34
2022/04/16 08:35:30;;;;;;;14.18;5.25;;;;;;;14.03;61.84;103378.22;4995426;28;97987;-35
2022/04/16 08:37:56;;;;;;;9.55;5.07;;;;;;;14.10;61.35;103368.00;4997333;28;97420;-34
2022/04/16 08:40:22;;;;;;;11.88;5.72;;;;;;;14.30;61.13;103391.78;4996107;28;96611;-34
2022/04/16 08:42:50;;;;;;;9.98;5.60;;;;;;;14.44;60.67;103376.72;4996463;28;96829;-34
2022/04/16 08:45:16;;;;;;;9.23;4.75;;;;;;;14.53;60.67;103380.03;4995418;28;100880;-34
2022/04/16 08:47:43;;;;;;;9.57;4.97;;;;;;;14.58;60.25;103378.06;4978754;28;99562;-35
2022/04/16 08:50:11;;;;;;;7.40;3.95;;;;;;;14.80;59.82;103389.03;4995934;28;96700;-34
2022/04/16 08:52:38;;;;;;;14.05;6.28;;;;;;;14.99;59.06;103376.47;4996131;28;96849;-34
2022/04/16 08:55:06;;;;;;;12.73;5.90;;;;;;;15.32;58.67;103380.63;4995662;28;100811;-34
2022/04/16 08:57:32;;;;;;;14.05;6.10;;;;;;;15.33;58.38;103382.41;4995870;28;101221;-34
2022/04/16 08:59:57;;;;;;;11.68;6.00;;;;;;;15.56;57.71;103379.59;4996622;28;96639;-34
2022/04/16 09:02:25;;;;;;;8.52;4.30;;;;;;;15.39;56.74;103372.09;4996746;28;96499;-35
2022/04/16 09:05:08;;;;;;;11.10;5.47;;;;;;;15.43;57.63;103378.34;4996711;28;99478;-34
2022/04/16 09:07:47;;;;;;;10.18;4.97;;;;;;;15.63;57.95;103372.91;4996379;28;100420;-35
2022/04/16 09:10:13;;;;;;;10.07;4.78;;;;;;;15.67;55.85;103360.03;4996627;28;96714;-34
2022/04/16 09:12:39;;;;;;;9.85;5.10;;;;;;;15.82;56.85;103353.03;4996884;28;96817;-34
2022/04/16 09:15:06;;;;;;;11.52;5.45;;;;;;;15.96;56.66;103364.25;4995174;28;101085;-34
2022/04/16 09:17:32;;;;;;;9.98;5.70;;;;;;;15.95;56.47;103356.16;4994404;28;100674;-34
2022/04/16 09:19:58;;;;;;;14.80;5.80;;;;;;;16.03;56.68;103359.41;4996883;28;96634;-34
2022/04/16 09:22:33;;;;;;;14.07;5.70;;;;;;;16.40;55.73;103369.59;4996925;28;96687;-34
2022/04/16 09:24:59;;;;;;;13.90;5.38;;;;;;;16.45;55.09;103361.19;4995747;28;99416;-34
2022/04/16 09:27:25;;;;;;;10.95;5.22;;;;;;;16.63;54.20;103362.16;4994775;28;100800;-34
2022/04/16 09:29:52;;;;;;;9.82;4.47;;;;;;;16.60;52.92;103356.84;4995918;28;114821;-34
2022/04/16 09:32:24;;;;;;;10.52;5.07;;;;;;;16.68;53.25;103371.91;4995144;28;96900;-34
2022/04/16 09:34:53;;;;;;;;;;;;;;;16.67;52.56;103372.00;4995357;28;101443;-34
2022/04/16 09:37:19;;;;;;;10.52;5.20;;;;;;;16.73;53.47;103369.88;4996231;28;99153;-34
2022/04/16 09:39:44;;;;;;;12.13;5.93;;;;;;;16.94;53.76;103362.50;4996253;28;96520;-35
2022/04/16 09:42:09;;;;;;;12.15;5.65;;;;;;;16.92;52.35;103364.44;4996797;28;96860;-34
2022/04/16 09:44:35;;;;;;;10.75;5.40;;;;;;;16.97;52.73;103356.88;4994912;28;125498;-34
2022/04/16 09:47:03;;;;;;;12.50;5.97;;;;;;;17.11;51.97;103366.25;4996026;28;97297;-33
2022/04/16 09:49:32;;;;;;;9.98;5.13;;;;;;;17.25;51.26;103361.00;4994386;28;96685;-34
2022/04/16 09:52:01;;;;;;;14.18;6.47;;;;;;;17.40;51.65;103360.25;4994369;28;96729;-34
2022/04/16 09:54:28;;;;;;;12.10;5.88;;;;;;;17.54;51.70;103362.28;4985534;28;100466;-34
2022/04/16 09:57:00;;;;;;;12.60;5.50;;;;;;;17.46;51.53;103364.50;4984373;28;97384;-34
2022/04/16 09:59:27;;;;;;;10.20;4.47;;;;;;;17.38;50.58;103362.16;4985146;28;96706;-34
2022/04/16 10:01:52;;;;;;;15.07;6.18;;;;;;;17.58;51.37;103361.16;4978084;28;96855;-34
2022/04/16 10:04:19;;;;;;;10.35;4.93;;;;;;;17.83;51.66;103355.34;4992691;28;110422;-34
2022/04/16 10:06:46;;;;;;;10.02;5.15;;;;;;;17.80;49.77;103352.75;4973338;28;98904;-36
2022/04/16 10:09:14;;;;;;;8.52;4.65;;;;;;;17.92;49.98;103359.44;4973443;28;96891;-34
2022/04/16 10:14:38;;;;;;;12.23;5.60;;;;;;;18.32;49.98;103365.53;4978042;28;97066;-34
2022/04/16 10:17:29;;;;;;;11.32;5.75;;;;;;;18.22;49.96;103358.78;4975789;28;97885;-34
2022/04/16 10:20:05;;;;;;;10.20;5.57;;;;;;;18.16;48.36;103339.91;4974512;28;97636;-34
2022/04/16 10:22:31;;;;;;;10.52;5.38;;;;;;;18.13;49.02;103353.78;4974706;28;96711;-33
2022/04/16 10:24:59;;;;;;;12.27;5.55;;;;;;;18.20;50.76;103356.09;4975292;28;99424;-34
2022/04/16 10:27:37;;;;;;;11.90;5.40;;;;;;;18.00;48.18;103354.44;4978491;28;97791;-34
2022/04/16 10:30:09;;;;;;;16.25;6.93;;;;;;;18.27;49.73;103353.94;4993201;28;96719;-34
2022/04/16 10:32:39;;;;;;;10.02;5.00;;;;;;;18.62;48.26;103359.34;4978070;28;96756;-34
2022/04/16 10:35:05;;;;;;;10.80;5.55;;;;;;;18.60;48.59;103359.44;4993743;28;100899;-34
2022/04/16 10:37:38;;;;;;;12.57;4.88;;;;;;;18.83;47.26;103365.50;4994066;28;102354;-34
2022/04/16 10:40:20;;;;;;;9.95;4.88;;;;;;;18.57;46.63;103355.97;4993876;28;96838;-34
2022/04/16 10:43:06;;;;;;;11.25;5.20;;;;;;;18.42;46.59;103358.59;4993934;28;96768;-34
2022/04/16 10:45:34;;;;;;;8.38;4.68;;;;;;;18.06;48.75;103350.47;4994937;28;97927;-34
2022/04/16 10:48:00;;;;;;;13.07;5.90;;;;;;;17.90;48.82;103355.00;4994952;28;99808;-34
2022/04/16 10:50:26;;;;;;;10.93;5.25;;;;;;;17.61;48.51;103351.88;4994830;28;107846;-34
2022/04/16 10:53:02;;;;;;;12.13;5.35;;;;;;;17.56;48.97;103359.44;4994463;28;113228;-34
2022/04/16 10:55:31;;;;;;;10.77;4.60;;;;;;;17.19;49.84;103347.63;4993666;28;101657;-34
2022/04/16 10:58:06;;;;;;;9.35;4.88;;;;;;;17.46;49.53;103348.06;4993735;28;101064;-34
2022/04/16 11:00:45;;;;;;;7.95;4.38;;;;;;;18.04;48.26;103356.06;4995447;28;96819;-34
2022/04/16 11:03:27;;;;;;;10.55;4.25;;;;;;;18.15;47.93;103341.75;4995230;28;96803;-34
2022/04/16 11:06:03;;;;;;;13.75;5.75;;;;;;;18.00;48.80;103342.59;4993117;28;100867;-34
2022/04/16 11:08:29;;;;;;;9.98;4.47;;;;;;;18.03;48.89;103353.41;4994703;28;97854;-34
2022/04/16 11:10:58;;;;;;;11.00;4.68;;;;;;;18.06;49.07;103334.03;4993792;28;96652;-33
2022/04/16 11:13:25;;;;;;;9.13;4.13;;;;;;;17.86;47.58;103351.53;4993724;28;97070;-34
2022/04/16 11:15:51;;;;;;;8.00;3.83;;;;;;;17.62;48.52;103351.81;4994515;28;98878;-34
2022/04/16 11:18:17;;;;;;;7.45;3.83;;;;;;;17.83;49.31;103340.75;4994005;28;118274;-34
2022/04/16 11:20:43;;;;;;;6.38;3.30;;;;;;;18.13;47.67;103335.47;4993681;28;96679;-34
2022/04/16 11:23:12;;;;;;;6.03;3.00;;;;;;;18.54;46.51;103346.03;4995588;28;96766;-34
2022/04/16 11:34:15;;;;;;;8.10;3.85;;;;;;;19.61;44.69;103343.59;4995326;28;96658;-34
2022/04/16 11:36:40;;;;;;;8.15;3.40;;;;;;;19.51;43.96;103340.50;4993049;28;101583;-34
2022/04/16 11:39:15;;;;;;;7.15;3.67;;;;;;;19.44;41.96;103330.84;4994647;28;97401;-34
2022/04/16 11:41:55;;;;;;;7.07;3.88;;;;;;;19.42;44.47;103333.69;4992579;28;96574;-34
2022/04/16 11:44:32;;;;;;;9.07;3.78;;;;;;;19.63;43.27;103333.41;4994523;28;96680;-34
2022/04/16 11:47:00;;;;;;;8.35;3.67;;;;;;;19.69;43.30;103339.44;4993971;28;99515;-34